Friday, July 20, 2018, 4:51 AM EDT
Back to Local

KWWD, Wildwood, Cape May County Airport

Location: Villas, NJ, United States Lat: 39.017
Local Time: 4:51 AM EDT ( 8:51 GMT) Lon: -74.917
Time Zone: US/Eastern Elev: 22 ft

Show me the last for .
Show Coded

Time T Td Feel RH Dir Speed Gust Alt SLP Vis Weather Sky Remarks
2018-07-20 03:55 64 62 - 93 - Calm - 30.12 30.13 10 CLR None
2018-07-20 02:55 65 63 - 93 - Calm - 30.13 30.13 10 CLR None
2018-07-20 01:55 66 64 - 93 - Calm - 30.12 30.13 10 CLR 6-hr Min Temp (2am): 64.9°F
6-hr Max Temp (2am): 73.9°F
2018-07-20 00:55 66 64 - 93 - Calm - 30.14 30.14 10 CLR 24-hr Min Temp (1am): 64.9°F
24-hr Max Temp (1am): 82.0°F
2018-07-19 23:55 68 65 - 89 - Calm - 30.13 30.13 9 CLR None
2018-07-19 22:55 68 65 - 89 110° 3 - 30.12 30.13 10 CLR None
2018-07-19 21:55 70 65 - 84 140° 3 - 30.12 30.12 9 CLR None
2018-07-19 20:55 71 65 76 81 120° 5 - 30.10 30.10 10 CLR None
2018-07-19 19:55 75 64 78 68 120° 7 - 30.08 30.09 10 CLR 6-hr Min Temp (8pm): 75.0°F
6-hr Max Temp (8pm): 82.0°F
2018-07-19 18:55 77 61 79 57 100° 9 - 30.07 30.08 10 CLR None
2018-07-19 17:55 80 62 82 54 120° 9 - 30.07 30.08 10 CLR None
2018-07-19 17:24 81 61 82 51 130° 10 - 30.09 - 10 CLR None
2018-07-19 17:11 79 61 80 54 130° 9 - 30.09 - 1 HZ FEW001 None
2018-07-19 16:55 80 61 81 52 120° 7 - 30.09 30.10 10 CLR None
2018-07-19 15:55 80 62 82 54 150° 10 - 30.09 30.10 10 CLR None
2018-07-19 14:55 81 61 82 50 160° 9 - 30.09 30.10 10 SCT047 None
2018-07-19 13:55 81 63 83 54 160° 9 - 30.09 30.10 10 CLR 6-hr Min Temp (2pm): 70.0°F
6-hr Max Temp (2pm): 82.0°F
2018-07-19 12:55 81 56 81 42 Variable 6 - 30.10 30.10 10 CLR None
2018-07-19 11:55 80 53 - 39 Variable 6 - 30.10 30.11 10 CLR None
2018-07-19 10:55 81 52 - 36 330° 6 - 30.10 30.11 10 CLR None
2018-07-19 09:55 77 59 79 53 Variable 5 - 30.09 30.10 10 CLR None
2018-07-19 08:55 74 56 77 53 10° 10 - 30.09 30.09 10 CLR None
2018-07-19 07:55 70 56 - 61 10° 7 - 30.07 30.07 10 CLR 6-hr Min Temp (8am): 64.9°F
6-hr Max Temp (8am): 70.0°F
2018-07-19 06:55 66 55 - 67 360° 6 - 30.05 30.06 10 FEW002 None
2018-07-19 05:55 65 55 - 70 10° 6 - 30.04 30.04 10 SCT075 None
2018-07-19 04:55 66 55 - 67 - Calm - 30.03 30.03 10 FEW075 None

Support USWX by starting your Amazon purchase here.